Time;durP1;ratioP1;P1;durP2;ratioP2;P2;SDS_P1;SDS_P2;PMS_P1;PMS_P2;Temp;Humidity;BMP_temperature;BMP_pressure;BME280_temperature;BME280_humidity;BME280_pressure;Samples;Min_cycle;Max_cycle;Signal;HPM_P1;HPM_P2
2022/01/13 00:03:47;;;;;;;9.5;3.7;;;;;;;;;;;;;-84
2022/01/13 00:04:31;;;;;;;;;;;;;;;3.64;94.72949;104166.8;;;;-84
2022/01/13 00:09:37;;;;;;;;;;;;;;;3.65;94.70996;104185.6;;;;-84
2022/01/13 00:14:57;;;;;;;;;;;;;;;3.67;94.625;104187.5;;;;-84
2022/01/13 00:19:47;;;;;;;;;;;;;;;3.66;94.61426;104179.8;;;;-83
2022/01/13 00:24:31;;;;;;;;;;;;;;;3.67;94.70313;104176.8;;;;-83
2022/01/13 00:29:31;;;;;;;;;;;;;;;3.68;94.69434;104172.6;;;;-82
2022/01/13 00:33:46;;;;;;;10.5;3.7;;;;;;;;;;;;;-82
2022/01/13 00:34:31;;;;;;;;;;;;;;;3.68;94.62891;104162.6;;;;-82
2022/01/13 00:39:31;;;;;;;;;;;;;;;3.69;94.63086;104161.7;;;;-83
2022/01/13 00:44:35;;;;;;;;;;;;;;;3.69;94.57715;104159.7;;;;-82
2022/01/13 00:49:32;;;;;;;;;;;;;;;3.7;94.67871;104171.1;;;;-83
2022/01/13 00:54:33;;;;;;;;;;;;;;;3.71;94.7002;104166.6;;;;-84
2022/01/13 00:59:34;;;;;;;;;;;;;;;3.71;94.71289;104178.9;;;;-83
2022/01/13 01:03:45;;;;;;;9.8;3.8;;;;;;;;;;;;;-84
2022/01/13 01:04:31;;;;;;;;;;;;;;;3.72;94.75684;104187.8;;;;-84
2022/01/13 01:09:39;;;;;;;;;;;;;;;3.74;94.75;104195.6;;;;-82
2022/01/13 01:14:32;;;;;;;;;;;;;;;3.75;94.78613;104187.3;;;;-82
2022/01/13 01:19:31;;;;;;;;;;;;;;;3.75;94.8291;104186.9;;;;-84
2022/01/13 01:24:59;;;;;;;;;;;;;;;3.77;94.875;104189.6;;;;-84
2022/01/13 01:29:37;;;;;;;;;;;;;;;3.78;94.93262;104187.6;;;;-84
2022/01/13 01:33:55;;;;;;;10;3.7;;;;;;;;;;;;;-84
2022/01/13 01:34:44;;;;;;;;;;;;;;;3.79;94.95703;104186.9;;;;-84
2022/01/13 01:39:31;;;;;;;;;;;;;;;3.79;94.96777;104177.6;;;;-85
2022/01/13 01:44:36;;;;;;;;;;;;;;;3.81;94.9502;104164.8;;;;-84
2022/01/13 01:49:38;;;;;;;;;;;;;;;3.82;94.91895;104161.7;;;;-85
2022/01/13 01:54:32;;;;;;;;;;;;;;;3.83;94.93262;104156.6;;;;-84
2022/01/13 01:59:34;;;;;;;;;;;;;;;3.84;94.92383;104153.6;;;;-85
2022/01/13 02:03:43;;;;;;;10;4.1;;;;;;;;;;;;;-85
2022/01/13 02:04:31;;;;;;;;;;;;;;;3.85;94.92773;104148.7;;;;-84
2022/01/13 02:09:31;;;;;;;;;;;;;;;3.87;94.92969;104143.1;;;;-85
2022/01/13 02:14:49;;;;;;;;;;;;;;;3.88;94.93359;104145.5;;;;-85
2022/01/13 02:19:31;;;;;;;;;;;;;;;3.89;94.93555;104150.3;;;;-84
2022/01/13 02:24:31;;;;;;;;;;;;;;;3.91;94.90723;104147.4;;;;-85
2022/01/13 02:29:31;;;;;;;;;;;;;;;3.91;94.9502;104148;;;;-84
2022/01/13 02:33:43;;;;;;;11.7;4;;;;;;;;;;;;;-84
2022/01/13 02:34:31;;;;;;;;;;;;;;;3.93;94.9541;104145.4;;;;-85
2022/01/13 02:39:31;;;;;;;;;;;;;;;3.94;94.93652;104140.6;;;;-85
2022/01/13 02:44:31;;;;;;;;;;;;;;;3.96;94.99316;104141.9;;;;-85
2022/01/13 02:49:32;;;;;;;;;;;;;;;3.96;94.99512;104145.6;;;;-85
2022/01/13 02:54:33;;;;;;;;;;;;;;;3.98;95.04199;104146;;;;-84
2022/01/13 02:59:40;;;;;;;;;;;;;;;3.98;95.03125;104140.4;;;;-85
2022/01/13 03:03:43;;;;;;;14.2;4.4;;;;;;;;;;;;;-85
2022/01/13 03:04:32;;;;;;;;;;;;;;;3.99;95.04395;104141.9;;;;-85
2022/01/13 03:09:31;;;;;;;;;;;;;;;3.99;95.01172;104136;;;;-85
2022/01/13 03:14:31;;;;;;;;;;;;;;;4;95.03711;104131.6;;;;-84
2022/01/13 03:19:31;;;;;;;;;;;;;;;4.01;95.05957;104119.9;;;;-84
2022/01/13 03:24:34;;;;;;;;;;;;;;;4.02;95.11523;104118.8;;;;-86
2022/01/13 03:29:31;;;;;;;;;;;;;;;4.03;95.12793;104116.2;;;;-84
2022/01/13 03:33:43;;;;;;;11.3;4;;;;;;;;;;;;;-85
2022/01/13 03:34:31;;;;;;;;;;;;;;;4.03;95.13867;104110.6;;;;-85
2022/01/13 03:39:32;;;;;;;;;;;;;;;4.03;95.12793;104104.1;;;;-84
2022/01/13 03:44:31;;;;;;;;;;;;;;;4.03;95.2041;104098.7;;;;-84
2022/01/13 03:49:33;;;;;;;;;;;;;;;4.03;95.21484;104103.3;;;;-85
2022/01/13 03:54:42;;;;;;;;;;;;;;;4.03;95.21484;104097.9;;;;-85
2022/01/13 03:59:45;;;;;;;;;;;;;;;4.03;95.17188;104092.2;;;;-85
2022/01/13 04:03:44;;;;;;;13.4;4.8;;;;;;;;;;;;;-85
2022/01/13 04:04:31;;;;;;;;;;;;;;;4.03;95.18262;104088.7;;;;-85
2022/01/13 04:09:47;;;;;;;;;;;;;;;4.03;95.22559;104085.5;;;;-85
2022/01/13 04:14:44;;;;;;;;;;;;;;;4.03;95.20605;104077;;;;-84
2022/01/13 04:19:32;;;;;;;;;;;;;;;4.04;95.27344;104077.5;;;;-84
2022/01/13 04:24:37;;;;;;;;;;;;;;;4.06;95.2207;104081.2;;;;-85
2022/01/13 04:29:35;;;;;;;;;;;;;;;4.06;95.2666;104077.5;;;;-84
2022/01/13 04:33:43;;;;;;;14.9;5;;;;;;;;;;;;;-85
2022/01/13 04:34:31;;;;;;;;;;;;;;;4.07;95.26855;104080.8;;;;-84
2022/01/13 04:39:35;;;;;;;;;;;;;;;4.09;95.2832;104083.5;;;;-84
2022/01/13 04:44:32;;;;;;;;;;;;;;;4.11;95.28516;104086.4;;;;-85
2022/01/13 04:49:31;;;;;;;;;;;;;;;4.12;95.32422;104086.3;;;;-85
2022/01/13 04:54:31;;;;;;;;;;;;;;;4.14;95.36035;104088.7;;;;-85
2022/01/13 04:59:32;;;;;;;;;;;;;;;4.16;95.33008;104091;;;;-85
2022/01/13 05:03:42;;;;;;;18;5.4;;;;;;;;;;;;;-85
2022/01/13 05:04:30;;;;;;;;;;;;;;;4.18;95.33594;104091.2;;;;-84
2022/01/13 05:09:37;;;;;;;;;;;;;;;4.19;95.34668;104097.9;;;;-85
2022/01/13 05:14:31;;;;;;;;;;;;;;;4.2;95.30762;104107;;;;-82
2022/01/13 05:19:36;;;;;;;;;;;;;;;4.21;95.30078;104114.1;;;;-82
2022/01/13 05:24:31;;;;;;;;;;;;;;;4.24;95.31543;104124.7;;;;-82
2022/01/13 05:29:32;;;;;;;;;;;;;;;4.26;95.31055;104122.9;;;;-84
2022/01/13 05:33:42;;;;;;;19.9;5.6;;;;;;;;;;;;;-84
2022/01/13 05:34:31;;;;;;;;;;;;;;;4.27;95.3125;104124.5;;;;-85
2022/01/13 05:39:32;;;;;;;;;;;;;;;4.29;95.37305;104117.3;;;;-84
2022/01/13 05:44:37;;;;;;;;;;;;;;;4.31;95.36426;104112.8;;;;-84
2022/01/13 05:49:32;;;;;;;;;;;;;;;4.32;95.33496;104107.7;;;;-85
2022/01/13 05:54:31;;;;;;;;;;;;;;;4.34;95.35938;104106.8;;;;-84
2022/01/13 05:59:34;;;;;;;;;;;;;;;4.35;95.33105;104100.7;;;;-85
2022/01/13 06:03:42;;;;;;;22;5.7;;;;;;;;;;;;;-84
2022/01/13 06:04:31;;;;;;;;;;;;;;;4.37;95.30176;104097.8;;;;-85
2022/01/13 06:09:31;;;;;;;;;;;;;;;4.39;95.27148;104098.6;;;;-86
2022/01/13 06:14:32;;;;;;;;;;;;;;;4.41;95.31934;104103.6;;;;-86
2022/01/13 06:19:31;;;;;;;;;;;;;;;4.41;95.31055;104108.8;;;;-85
2022/01/13 06:24:32;;;;;;;;;;;;;;;4.43;95.33789;104108;;;;-85
2022/01/13 06:29:32;;;;;;;;;;;;;;;4.45;95.30957;104102.7;;;;-85
2022/01/13 06:33:40;;;;;;;21.9;5.8;;;;;;;;;;;;;-86
2022/01/13 06:34:31;;;;;;;;;;;;;;;4.47;95.36719;104110.7;;;;-86
2022/01/13 06:39:32;;;;;;;;;;;;;;;4.49;95.38281;104112.2;;;;-83
2022/01/13 06:44:31;;;;;;;;;;;;;;;4.51;95.36523;104105;;;;-83
2022/01/13 06:49:30;;;;;;;;;;;;;;;4.53;95.36914;104098.6;;;;-83
2022/01/13 06:54:33;;;;;;;;;;;;;;;4.55;95.35059;104089;;;;-83
2022/01/13 06:59:31;;;;;;;;;;;;;;;4.56;95.32227;104097.3;;;;-83
2022/01/13 07:03:41;;;;;;;21.3;5.9;;;;;;;;;;;;;-82
2022/01/13 07:04:31;;;;;;;;;;;;;;;4.57;95.32422;104099.1;;;;-83
2022/01/13 07:09:31;;;;;;;;;;;;;;;4.59;95.31738;104095.3;;;;-83
2022/01/13 07:14:32;;;;;;;;;;;;;;;4.61;95.28906;104093.6;;;;-85
2022/01/13 07:19:32;;;;;;;;;;;;;;;4.63;95.30371;104096.8;;;;-85
2022/01/13 07:24:31;;;;;;;;;;;;;;;4.64;95.22949;104100.5;;;;-85
2022/01/13 07:29:34;;;;;;;;;;;;;;;4.66;95.25586;104108.6;;;;-85
2022/01/13 07:33:42;;;;;;;21.5;6.2;;;;;;;;;;;;;-85
2022/01/13 07:34:31;;;;;;;;;;;;;;;4.67;95.23535;104114.2;;;;-85
2022/01/13 07:39:31;;;;;;;;;;;;;;;4.67;95.21582;104113.8;;;;-85
2022/01/13 07:44:31;;;;;;;;;;;;;;;4.68;95.21777;104118;;;;-84
2022/01/13 07:49:31;;;;;;;;;;;;;;;4.7;95.21094;104117.8;;;;-85
2022/01/13 07:54:32;;;;;;;;;;;;;;;4.71;95.24609;104113.8;;;;-83
2022/01/13 07:59:32;;;;;;;;;;;;;;;4.72;95.28223;104114.1;;;;-84
2022/01/13 08:03:42;;;;;;;20.7;6.4;;;;;;;;;;;;;-85
2022/01/13 08:04:34;;;;;;;;;;;;;;;4.73;95.29297;104117.5;;;;-85
2022/01/13 08:09:33;;;;;;;;;;;;;;;4.75;95.28906;104114.6;;;;-85
2022/01/13 08:14:31;;;;;;;;;;;;;;;4.77;95.34668;104121.6;;;;-84
2022/01/13 08:24:33;;;;;;;;;;;;;;;4.84;95.48047;104131.1;;;;-83
2022/01/13 08:29:32;;;;;;;;;;;;;;;4.86;95.57324;104128.9;;;;-85
2022/01/13 08:33:43;;;;;;;20;6.4;;;;;;;;;;;;;-83
2022/01/13 08:34:36;;;;;;;;;;;;;;;4.89;95.55957;104129.3;;;;-84
2022/01/13 08:39:38;;;;;;;;;;;;;;;4.93;95.57715;104134.7;;;;-85
2022/01/13 08:44:31;;;;;;;;;;;;;;;4.95;95.62598;104146.5;;;;-84
2022/01/13 08:49:33;;;;;;;;;;;;;;;4.99;95.62305;104145.9;;;;-84
2022/01/13 08:54:32;;;;;;;;;;;;;;;5.03;95.73145;104140.8;;;;-84
2022/01/13 08:59:32;;;;;;;;;;;;;;;5.07;95.70703;104136.9;;;;-85
2022/01/13 09:03:49;;;;;;;24.6;7;;;;;;;;;;;;;-83
2022/01/13 09:04:31;;;;;;;;;;;;;;;5.11;95.69141;104129.9;;;;-84
2022/01/13 09:09:38;;;;;;;;;;;;;;;5.15;95.71191;104122.1;;;;-84
2022/01/13 09:14:32;;;;;;;;;;;;;;;5.21;95.7373;104127.3;;;;-81
2022/01/13 09:19:31;;;;;;;;;;;;;;;5.25;95.74512;104130.6;;;;-85
2022/01/13 09:24:31;;;;;;;;;;;;;;;5.29;95.71191;104131.4;;;;-82
2022/01/13 09:29:31;;;;;;;;;;;;;;;5.33;95.76465;104128.6;;;;-83
2022/01/13 09:33:42;;;;;;;26.5;7.4;;;;;;;;;;;;;-83
2022/01/13 09:34:31;;;;;;;;;;;;;;;5.37;95.74023;104126.6;;;;-83
2022/01/13 09:39:33;;;;;;;;;;;;;;;5.41;95.75098;104130.9;;;;-82
2022/01/13 09:44:32;;;;;;;;;;;;;;;5.46;95.75879;104125.2;;;;-83
2022/01/13 09:49:31;;;;;;;;;;;;;;;5.5;95.75781;104121.8;;;;-82
2022/01/13 09:54:33;;;;;;;;;;;;;;;5.55;95.75684;104117.4;;;;-82
2022/01/13 09:59:37;;;;;;;;;;;;;;;5.59;95.74512;104117.9;;;;-83
2022/01/13 10:03:43;;;;;;;31;9.6;;;;;;;;;;;;;-85
2022/01/13 10:04:41;;;;;;;;;;;;;;;5.63;95.73145;104122.3;;;;-86
2022/01/13 10:09:46;;;;;;;;;;;;;;;5.69;95.81055;104123.7;;;;-85
2022/01/13 10:19:55;;;;;;;;;;;;;;;5.77;95.7959;104128.8;;;;-86
2022/01/13 10:24:34;;;;;;;;;;;;;;;5.79;95.70215;104129.4;;;;-86
2022/01/13 10:29:43;;;;;;;;;;;;;;;5.83;95.70801;104119.1;;;;-86
2022/01/13 10:33:40;;;;;;;28.8;9.7;;;;;;;;;;;;;-85
2022/01/13 10:34:32;;;;;;;;;;;;;;;5.86;95.68359;104126.2;;;;-86
2022/01/13 10:39:48;;;;;;;;;;;;;;;5.88;95.65527;104129.2;;;;-85
2022/01/13 10:44:32;;;;;;;;;;;;;;;5.92;95.66504;104128;;;;-85
2022/01/13 10:49:47;;;;;;;;;;;;;;;5.95;95.65137;104124.9;;;;-86
2022/01/13 10:54:32;;;;;;;;;;;;;;;5.97;95.62305;104116.6;;;;-87
2022/01/13 10:59:43;;;;;;;;;;;;;;;6;95.64844;104115;;;;-86
2022/01/13 11:03:43;;;;;;;25.6;10.2;;;;;;;;;;;;;-85
2022/01/13 11:04:35;;;;;;;;;;;;;;;6.03;95.59961;104112.3;;;;-85
2022/01/13 11:09:42;;;;;;;;;;;;;;;6.05;95.61621;104101.8;;;;-86
2022/01/13 11:14:42;;;;;;;;;;;;;;;6.08;95.5918;104103.8;;;;-85
2022/01/13 11:19:32;;;;;;;;;;;;;;;6.11;95.55273;104096.9;;;;-86
2022/01/13 11:24:31;;;;;;;;;;;;;;;6.13;95.5459;104087.5;;;;-82
2022/01/13 11:29:31;;;;;;;;;;;;;;;6.13;95.51465;104084.3;;;;-82
2022/01/13 11:33:44;;;;;;;30.2;10.7;;;;;;;;;;;;;-84
2022/01/13 11:34:34;;;;;;;;;;;;;;;6.16;95.62988;104084.5;;;;-83
2022/01/13 11:39:41;;;;;;;;;;;;;;;6.18;95.59082;104081.4;;;;-82
2022/01/13 11:44:31;;;;;;;;;;;;;;;6.2;95.59668;104077.6;;;;-83
2022/01/13 11:49:42;;;;;;;;;;;;;;;6.24;95.5625;104076.6;;;;-83
2022/01/13 11:54:44;;;;;;;;;;;;;;;6.26;95.5127;104073.6;;;;-84
2022/01/13 11:59:33;;;;;;;;;;;;;;;6.28;95.42871;104072.6;;;;-83
2022/01/13 12:03:43;;;;;;;29;11.8;;;;;;;;;;;;;-84
2022/01/13 12:04:34;;;;;;;;;;;;;;;6.29;95.43066;104076.3;;;;-83
2022/01/13 12:09:48;;;;;;;;;;;;;;;6.31;95.46777;104071.2;;;;-81
2022/01/13 12:14:45;;;;;;;;;;;;;;;6.33;95.43945;104066.1;;;;-81
2022/01/13 12:19:39;;;;;;;;;;;;;;;6.36;95.39063;104059.3;;;;-85
2022/01/13 12:24:41;;;;;;;;;;;;;;;6.39;95.40918;104059.3;;;;-85
2022/01/13 12:29:32;;;;;;;;;;;;;;;6.46;95.37988;104055.7;;;;-85
2022/01/13 12:33:42;;;;;;;29.7;11.6;;;;;;;;;;;;;-85
2022/01/13 12:34:43;;;;;;;;;;;;;;;6.5;95.36621;104048.6;;;;-85
2022/01/13 12:39:43;;;;;;;;;;;;;;;6.54;95.33398;104043.8;;;;-85
2022/01/13 12:49:37;;;;;;;;;;;;;;;6.61;95.19531;104048.5;;;;-86
2022/01/13 12:54:32;;;;;;;;;;;;;;;6.65;95.11816;104046;;;;-85
2022/01/13 12:59:32;;;;;;;;;;;;;;;6.67;95.09863;104037.7;;;;-86
2022/01/13 13:03:42;;;;;;;29.3;12.6;;;;;;;;;;;;;-85
2022/01/13 13:04:32;;;;;;;;;;;;;;;6.68;94.99121;104031.3;;;;-86
2022/01/13 13:09:33;;;;;;;;;;;;;;;6.69;94.91895;104037.8;;;;-86
2022/01/13 13:15:39;;;;;;;;;;;;;;;6.7;94.875;104033.5;;;;-85
2022/01/13 13:19:31;;;;;;;;;;;;;;;6.69;94.80957;104032.4;;;;-86
2022/01/13 13:24:42;;;;;;;;;;;;;;;6.69;94.79883;104032;;;;-85
2022/01/13 13:29:31;;;;;;;;;;;;;;;6.7;94.81152;104026.9;;;;-84
2022/01/13 13:33:42;;;;;;;29.7;11.3;;;;;;;;;;;;;-84
2022/01/13 13:34:32;;;;;;;;;;;;;;;6.72;94.82617;104027.3;;;;-85
2022/01/13 13:39:31;;;;;;;;;;;;;;;6.76;94.81445;104027.1;;;;-82
2022/01/13 13:44:32;;;;;;;;;;;;;;;6.8;94.78809;104018.1;;;;-81
2022/01/13 13:49:31;;;;;;;;;;;;;;;6.83;94.73926;104023;;;;-82
2022/01/13 13:54:35;;;;;;;;;;;;;;;6.83;94.64258;104022.9;;;;-86
2022/01/13 13:59:36;;;;;;;;;;;;;;;6.84;94.60059;104019.4;;;;-86
2022/01/13 14:03:50;;;;;;;32.5;12.2;;;;;;;;;;;;;-85
2022/01/13 14:04:42;;;;;;;;;;;;;;;6.82;94.52051;104021.2;;;;-86
2022/01/13 14:09:45;;;;;;;;;;;;;;;6.82;94.46582;104026.5;;;;-86
2022/01/13 14:14:39;;;;;;;;;;;;;;;6.8;94.42676;104024.8;;;;-86
2022/01/13 14:19:37;;;;;;;;;;;;;;;6.78;94.40332;104023.9;;;;-85
2022/01/13 14:24:38;;;;;;;;;;;;;;;6.76;94.41016;104019.3;;;;-86
2022/01/13 14:29:36;;;;;;;;;;;;;;;6.73;94.45898;104014.2;;;;-86
2022/01/13 14:33:44;;;;;;;29.9;10.8;;;;;;;;;;;;;-86
2022/01/13 14:34:33;;;;;;;;;;;;;;;6.7;94.40723;104017;;;;-86
2022/01/13 14:39:36;;;;;;;;;;;;;;;6.68;94.43652;104010.6;;;;-85
2022/01/13 14:44:33;;;;;;;;;;;;;;;6.65;94.41699;104011.5;;;;-86
2022/01/13 14:49:34;;;;;;;;;;;;;;;6.61;94.47461;104014.3;;;;-87
2022/01/13 14:54:31;;;;;;;;;;;;;;;6.58;94.52148;104010.2;;;;-85
2022/01/13 14:59:31;;;;;;;;;;;;;;;6.55;94.55957;104008.1;;;;-86
2022/01/13 15:03:41;;;;;;;27.8;10.5;;;;;;;;;;;;;-85
2022/01/13 15:04:31;;;;;;;;;;;;;;;6.52;94.59766;104004.5;;;;-85
2022/01/13 15:09:31;;;;;;;;;;;;;;;6.51;94.67383;104006.3;;;;-85
2022/01/13 15:14:31;;;;;;;;;;;;;;;6.49;94.68945;104004;;;;-85
2022/01/13 15:19:31;;;;;;;;;;;;;;;6.48;94.74023;104007.4;;;;-85
2022/01/13 15:24:31;;;;;;;;;;;;;;;6.47;94.80566;104004.4;;;;-84
2022/01/13 15:29:33;;;;;;;;;;;;;;;6.45;94.88672;104001.6;;;;-85
2022/01/13 15:33:42;;;;;;;31.6;10.9;;;;;;;;;;;;;-84
2022/01/13 15:34:31;;;;;;;;;;;;;;;6.44;94.94141;104004.4;;;;-85
2022/01/13 15:39:31;;;;;;;;;;;;;;;6.43;94.83887;104009.1;;;;-85
2022/01/13 15:44:31;;;;;;;;;;;;;;;6.39;95.03809;104011.4;;;;-86
2022/01/13 15:49:31;;;;;;;;;;;;;;;6.36;95.03027;104005.3;;;;-86
2022/01/13 15:54:31;;;;;;;;;;;;;;;6.32;95.08789;104003.8;;;;-87
2022/01/13 15:59:31;;;;;;;;;;;;;;;6.29;95.09082;104006.6;;;;-86
2022/01/13 16:03:41;;;;;;;28.3;10.7;;;;;;;;;;;;;-86
2022/01/13 16:04:39;;;;;;;;;;;;;;;6.27;95.11035;104009.6;;;;-86
2022/01/13 16:09:31;;;;;;;;;;;;;;;6.26;95.15039;104013.2;;;;-86
2022/01/13 16:14:33;;;;;;;;;;;;;;;6.23;95.12207;104010.2;;;;-86
2022/01/13 16:19:31;;;;;;;;;;;;;;;6.2;95.19336;104012.8;;;;-87
2022/01/13 16:24:33;;;;;;;;;;;;;;;6.17;95.19824;104005.8;;;;-85
2022/01/13 16:29:41;;;;;;;;;;;;;;;6.13;95.20996;104003;;;;-88
2022/01/13 16:33:44;;;;;;;24.9;9.7;;;;;;;;;;;;;-86
2022/01/13 16:34:31;;;;;;;;;;;;;;;6.09;95.20215;104000.8;;;;-86
2022/01/13 16:39:31;;;;;;;;;;;;;;;6.04;95.19141;103996.9;;;;-87
2022/01/13 16:44:31;;;;;;;;;;;;;;;6;95.19043;103992.7;;;;-85
2022/01/13 16:49:37;;;;;;;;;;;;;;;5.94;95.20215;103992.1;;;;-86
2022/01/13 16:54:31;;;;;;;;;;;;;;;5.88;95.19727;103990.2;;;;-83
2022/01/13 16:59:31;;;;;;;;;;;;;;;5.81;95.21582;103982.6;;;;-84
2022/01/13 17:03:41;;;;;;;22.5;8.8;;;;;;;;;;;;;-82
2022/01/13 17:04:30;;;;;;;;;;;;;;;5.74;95.2002;103976.2;;;;-85
2022/01/13 17:09:35;;;;;;;;;;;;;;;5.64;95.25684;103971.1;;;;-86
2022/01/13 17:14:37;;;;;;;;;;;;;;;5.57;95.28418;103970.7;;;;-83
2022/01/13 17:19:31;;;;;;;;;;;;;;;5.52;95.25;103966.5;;;;-80
2022/01/13 17:24:31;;;;;;;;;;;;;;;5.44;95.16895;103960.6;;;;-83
2022/01/13 17:29:30;;;;;;;;;;;;;;;5.38;95.16602;103957.5;;;;-82
2022/01/13 17:33:41;;;;;;;25.1;9.3;;;;;;;;;;;;;-83
2022/01/13 17:34:31;;;;;;;;;;;;;;;5.32;95.15332;103955.6;;;;-83
2022/01/13 17:39:31;;;;;;;;;;;;;;;5.28;95.11133;103962.6;;;;-83
2022/01/13 17:44:32;;;;;;;;;;;;;;;5.26;95.16992;103970.2;;;;-85
2022/01/13 17:49:32;;;;;;;;;;;;;;;5.23;95.16406;103957.4;;;;-82
2022/01/13 17:54:32;;;;;;;;;;;;;;;5.21;95.25977;103953.4;;;;-84
2022/01/13 17:59:35;;;;;;;;;;;;;;;5.21;95.29297;103946.3;;;;-83
2022/01/13 18:03:45;;;;;;;19.6;7.1;;;;;;;;;;;;;-83
2022/01/13 18:04:30;;;;;;;;;;;;;;;5.23;95.38184;103944.1;;;;-83
2022/01/13 18:09:35;;;;;;;;;;;;;;;5.26;95.48633;103940.7;;;;-83
2022/01/13 18:14:30;;;;;;;;;;;;;;;5.28;95.47852;103940.1;;;;-85
2022/01/13 18:19:33;;;;;;;;;;;;;;;5.28;95.46973;103937.1;;;;-85
2022/01/13 18:24:33;;;;;;;;;;;;;;;5.28;95.49023;103944.3;;;;-85
2022/01/13 18:29:33;;;;;;;;;;;;;;;5.27;95.47852;103946.4;;;;-84
2022/01/13 18:33:42;;;;;;;16.8;7;;;;;;;;;;;;;-85
2022/01/13 18:34:31;;;;;;;;;;;;;;;5.27;95.51172;103943.9;;;;-84
2022/01/13 18:39:31;;;;;;;;;;;;;;;5.25;95.44043;103942.1;;;;-85
2022/01/13 18:44:31;;;;;;;;;;;;;;;5.26;95.51855;103941.7;;;;-82
2022/01/13 18:49:31;;;;;;;;;;;;;;;5.23;95.50391;103943.4;;;;-82
2022/01/13 18:54:33;;;;;;;;;;;;;;;5.22;95.46875;103947.2;;;;-82
2022/01/13 18:59:38;;;;;;;;;;;;;;;5.21;95.41895;103952.9;;;;-78
2022/01/13 19:03:41;;;;;;;14.9;6.5;;;;;;;;;;;;;-85
2022/01/13 19:04:31;;;;;;;;;;;;;;;5.2;95.50684;103937.3;;;;-85
2022/01/13 19:09:31;;;;;;;;;;;;;;;5.2;95.64746;103942.5;;;;-85
2022/01/13 19:14:31;;;;;;;;;;;;;;;5.19;95.79785;103936;;;;-84
2022/01/13 19:19:33;;;;;;;;;;;;;;;5.19;95.68945;103935.2;;;;-84
2022/01/13 19:29:32;;;;;;;;;;;;;;;5.18;95.66602;103930.3;;;;-84
2022/01/13 19:33:42;;;;;;;23.1;6.7;;;;;;;;;;;;;-85
2022/01/13 19:34:31;;;;;;;;;;;;;;;5.17;95.59863;103928.9;;;;-85
2022/01/13 19:39:31;;;;;;;;;;;;;;;5.18;95.69824;103926.2;;;;-85
2022/01/13 19:44:31;;;;;;;;;;;;;;;5.18;95.85938;103930;;;;-84
2022/01/13 19:49:33;;;;;;;;;;;;;;;5.16;95.75977;103926.4;;;;-84
2022/01/13 19:54:34;;;;;;;;;;;;;;;5.16;95.73535;103930.5;;;;-85
2022/01/13 19:59:31;;;;;;;;;;;;;;;5.15;95.82227;103922.6;;;;-85
2022/01/13 20:03:44;;;;;;;18;6.7;;;;;;;;;;;;;-84
2022/01/13 20:04:35;;;;;;;;;;;;;;;5.15;95.85352;103919.7;;;;-85
2022/01/13 20:09:31;;;;;;;;;;;;;;;5.15;95.88574;103921.2;;;;-84
2022/01/13 20:14:34;;;;;;;;;;;;;;;5.14;95.86426;103915.1;;;;-84
2022/01/13 20:19:31;;;;;;;;;;;;;;;5.15;95.875;103920.1;;;;-84
2022/01/13 20:24:33;;;;;;;;;;;;;;;5.14;95.7666;103919.6;;;;-82
2022/01/13 20:29:32;;;;;;;;;;;;;;;5.15;95.70117;103917.7;;;;-82
2022/01/13 20:33:41;;;;;;;17.1;6.4;;;;;;;;;;;;;-83
2022/01/13 20:34:33;;;;;;;;;;;;;;;5.14;95.70117;103904.9;;;;-83
2022/01/13 20:39:31;;;;;;;;;;;;;;;5.14;95.71191;103908.2;;;;-83
2022/01/13 20:44:30;;;;;;;;;;;;;;;5.12;95.58789;103907.4;;;;-85
2022/01/13 20:49:31;;;;;;;;;;;;;;;5.09;95.54785;103905.4;;;;-85
2022/01/13 20:54:33;;;;;;;;;;;;;;;5.06;95.48535;103896.1;;;;-85
2022/01/13 20:59:30;;;;;;;;;;;;;;;5.01;95.46387;103901.3;;;;-84
2022/01/13 21:03:40;;;;;;;16.5;6.7;;;;;;;;;;;;;-84
2022/01/13 21:04:32;;;;;;;;;;;;;;;4.94;95.4043;103905.8;;;;-86
2022/01/13 21:09:31;;;;;;;;;;;;;;;4.86;95.39746;103899.2;;;;-85
2022/01/13 21:14:33;;;;;;;;;;;;;;;4.76;95.41895;103892;;;;-84
2022/01/13 21:19:37;;;;;;;;;;;;;;;4.67;95.42285;103893.7;;;;-85
2022/01/13 21:24:31;;;;;;;;;;;;;;;4.6;95.46094;103880.1;;;;-85
2022/01/13 21:29:32;;;;;;;;;;;;;;;4.51;95.47363;103882.3;;;;-85
2022/01/13 21:33:40;;;;;;;15.6;6.5;;;;;;;;;;;;;-84
2022/01/13 21:34:31;;;;;;;;;;;;;;;4.43;95.46582;103883.8;;;;-86
2022/01/13 21:39:31;;;;;;;;;;;;;;;4.34;95.46777;103878.8;;;;-86
2022/01/13 21:44:31;;;;;;;;;;;;;;;4.24;95.54492;103866.7;;;;-85
2022/01/13 21:49:34;;;;;;;;;;;;;;;4.15;95.5791;103862.3;;;;-85
2022/01/13 21:54:34;;;;;;;;;;;;;;;4.09;95.63965;103875.9;;;;-87
2022/01/13 21:59:32;;;;;;;;;;;;;;;4.01;95.67773;103860.4;;;;-86
2022/01/13 22:03:39;;;;;;;15.1;6.6;;;;;;;;;;;;;-86
2022/01/13 22:04:33;;;;;;;;;;;;;;;3.92;95.73535;103859.2;;;;-85
2022/01/13 22:09:43;;;;;;;;;;;;;;;3.85;95.74121;103872.1;;;;-86
2022/01/13 22:14:31;;;;;;;;;;;;;;;3.78;95.79004;103860.4;;;;-85
2022/01/13 22:19:32;;;;;;;;;;;;;;;3.73;95.86426;103851.2;;;;-85
2022/01/13 22:24:31;;;;;;;;;;;;;;;3.69;95.87793;103852.3;;;;-84
2022/01/13 22:29:32;;;;;;;;;;;;;;;3.68;95.91895;103845.1;;;;-87
2022/01/13 22:33:43;;;;;;;16.2;6.1;;;;;;;;;;;;;-85
2022/01/13 22:34:31;;;;;;;;;;;;;;;3.69;95.9668;103843.5;;;;-85
2022/01/13 22:39:33;;;;;;;;;;;;;;;3.73;96.02637;103839.4;;;;-84
2022/01/13 22:44:33;;;;;;;;;;;;;;;3.78;96.09277;103843.8;;;;-85
2022/01/13 22:49:31;;;;;;;;;;;;;;;3.83;96.2334;103847.6;;;;-85
2022/01/13 22:54:31;;;;;;;;;;;;;;;3.87;96.42969;103845.2;;;;-85
2022/01/13 22:59:31;;;;;;;;;;;;;;;3.89;96.30176;103843.7;;;;-84
2022/01/13 23:03:39;;;;;;;14.8;5.1;;;;;;;;;;;;;-84
2022/01/13 23:04:31;;;;;;;;;;;;;;;3.92;96.28809;103836.3;;;;-85
2022/01/13 23:09:31;;;;;;;;;;;;;;;3.93;96.30078;103819;;;;-86
2022/01/13 23:14:44;;;;;;;;;;;;;;;3.94;96.29004;103821.9;;;;-85
2022/01/13 23:24:32;;;;;;;;;;;;;;;3.89;96.36719;103828.7;;;;-85
2022/01/13 23:29:34;;;;;;;;;;;;;;;3.84;96.35449;103819.3;;;;-86
2022/01/13 23:33:40;;;;;;;11.9;4.8;;;;;;;;;;;;;-85
2022/01/13 23:34:32;;;;;;;;;;;;;;;3.8;96.37891;103824;;;;-86
2022/01/13 23:39:30;;;;;;;;;;;;;;;3.76;96.34961;103826.2;;;;-86
2022/01/13 23:44:34;;;;;;;;;;;;;;;3.78;96.38574;103822.8;;;;-86
2022/01/13 23:49:31;;;;;;;;;;;;;;;3.8;96.43359;103810.6;;;;-86
2022/01/13 23:54:31;;;;;;;;;;;;;;;3.82;96.44824;103796.9;;;;-86
2022/01/13 23:59:32;;;;;;;;;;;;;;;3.84;96.38672;103792.6;;;;-86
